sensor_id;sensor_type;location;lat;lon;timestamp;pressure;altitude;pressure_sealevel;temperature;humidity
61786;BME280;47692;53.714;11.372;2023-05-20T00:01:21;102239.16;;;7.93;79.05
61786;BME280;47692;53.714;11.372;2023-05-20T00:03:46;102233.84;;;7.84;79.54
61786;BME280;47692;53.714;11.372;2023-05-20T00:06:12;102237.31;;;7.85;79.65
61786;BME280;47692;53.714;11.372;2023-05-20T00:08:37;102236.56;;;7.95;79.69
61786;BME280;47692;53.714;11.372;2023-05-20T00:11:02;102240.09;;;8.00;79.46
61786;BME280;47692;53.714;11.372;2023-05-20T00:13:28;102228.00;;;8.02;79.38
61786;BME280;47692;53.714;11.372;2023-05-20T00:15:53;102236.78;;;8.11;79.20
61786;BME280;47692;53.714;11.372;2023-05-20T00:18:18;102233.22;;;8.05;79.37
61786;BME280;47692;53.714;11.372;2023-05-20T00:20:44;102234.91;;;8.02;79.13
61786;BME280;47692;53.714;11.372;2023-05-20T00:23:09;102231.31;;;7.90;79.33
61786;BME280;47692;53.714;11.372;2023-05-20T00:25:34;102231.31;;;7.89;79.78
61786;BME280;47692;53.714;11.372;2023-05-20T00:28:00;102233.88;;;7.86;79.66
61786;BME280;47692;53.714;11.372;2023-05-20T00:30:25;102227.78;;;7.87;79.62
61786;BME280;47692;53.714;11.372;2023-05-20T00:32:51;102236.47;;;7.86;79.57
61786;BME280;47692;53.714;11.372;2023-05-20T00:35:16;102228.63;;;7.84;79.85
61786;BME280;47692;53.714;11.372;2023-05-20T00:37:41;102227.72;;;7.81;79.77
61786;BME280;47692;53.714;11.372;2023-05-20T00:40:07;102219.06;;;7.82;79.68
61786;BME280;47692;53.714;11.372;2023-05-20T00:42:33;102226.00;;;7.80;80.05
61786;BME280;47692;53.714;11.372;2023-05-20T00:44:59;102226.78;;;7.75;80.02
61786;BME280;47692;53.714;11.372;2023-05-20T00:47:32;102223.25;;;7.70;80.12
61786;BME280;47692;53.714;11.372;2023-05-20T00:49:58;102227.56;;;7.68;80.37
61786;BME280;47692;53.714;11.372;2023-05-20T00:52:24;102222.41;;;7.71;80.57
61786;BME280;47692;53.714;11.372;2023-05-20T00:54:51;102228.47;;;7.70;80.99
61786;BME280;47692;53.714;11.372;2023-05-20T00:57:18;102225.00;;;7.70;81.58
61786;BME280;47692;53.714;11.372;2023-05-20T00:59:43;102226.75;;;7.72;81.65
61786;BME280;47692;53.714;11.372;2023-05-20T01:02:09;102231.13;;;7.73;81.69
61786;BME280;47692;53.714;11.372;2023-05-20T01:04:34;102230.22;;;7.71;81.48
61786;BME280;47692;53.714;11.372;2023-05-20T01:07:02;102224.06;;;7.66;81.14
61786;BME280;47692;53.714;11.372;2023-05-20T01:09:29;102217.94;;;7.61;81.21
61786;BME280;47692;53.714;11.372;2023-05-20T01:12:05;102221.38;;;7.58;81.27
61786;BME280;47692;53.714;11.372;2023-05-20T01:14:37;102212.59;;;7.50;81.27
61786;BME280;47692;53.714;11.372;2023-05-20T01:17:07;102214.03;;;7.30;82.10
61786;BME280;47692;53.714;11.372;2023-05-20T01:19:40;102216.38;;;7.13;83.29
61786;BME280;47692;53.714;11.372;2023-05-20T01:22:08;102209.44;;;7.11;83.93
61786;BME280;47692;53.714;11.372;2023-05-20T01:24:43;102211.13;;;7.09;84.33
61786;BME280;47692;53.714;11.372;2023-05-20T01:27:10;102217.22;;;7.11;84.56
61786;BME280;47692;53.714;11.372;2023-05-20T01:29:41;102211.28;;;7.19;84.53
61786;BME280;47692;53.714;11.372;2023-05-20T01:32:10;102210.47;;;7.21;83.88
61786;BME280;47692;53.714;11.372;2023-05-20T01:34:37;102209.56;;;7.21;84.09
61786;BME280;47692;53.714;11.372;2023-05-20T01:37:03;102205.16;;;7.15;84.17
61786;BME280;47692;53.714;11.372;2023-05-20T01:39:30;102206.03;;;7.16;84.28
61786;BME280;47692;53.714;11.372;2023-05-20T01:41:59;102204.34;;;7.18;84.38
61786;BME280;47692;53.714;11.372;2023-05-20T01:44:26;102208.72;;;7.22;84.34
61786;BME280;47692;53.714;11.372;2023-05-20T01:46:52;102206.97;;;7.21;84.43
61786;BME280;47692;53.714;11.372;2023-05-20T01:49:18;102213.94;;;7.23;84.89
61786;BME280;47692;53.714;11.372;2023-05-20T01:51:43;102212.25;;;7.25;84.78
61786;BME280;47692;53.714;11.372;2023-05-20T01:54:08;102204.44;;;7.24;84.83
61786;BME280;47692;53.714;11.372;2023-05-20T01:56:34;102207.78;;;7.17;85.03
61786;BME280;47692;53.714;11.372;2023-05-20T01:58:59;102208.53;;;7.11;85.14
61786;BME280;47692;53.714;11.372;2023-05-20T02:01:24;102212.88;;;7.10;85.52
61786;BME280;47692;53.714;11.372;2023-05-20T02:03:50;102213.75;;;7.11;85.87
61786;BME280;47692;53.714;11.372;2023-05-20T02:06:15;102210.28;;;7.10;85.89
61786;BME280;47692;53.714;11.372;2023-05-20T02:08:41;102207.66;;;7.07;85.86
61786;BME280;47692;53.714;11.372;2023-05-20T02:11:06;102208.41;;;7.02;86.27
61786;BME280;47692;53.714;11.372;2023-05-20T02:13:31;102200.59;;;7.00;86.65
61786;BME280;47692;53.714;11.372;2023-05-20T02:15:57;102205.00;;;7.04;86.89
61786;BME280;47692;53.714;11.372;2023-05-20T02:18:22;102202.34;;;7.01;87.05
61786;BME280;47692;53.714;11.372;2023-05-20T02:20:51;102204.91;;;7.00;87.10
61786;BME280;47692;53.714;11.372;2023-05-20T02:23:16;102205.75;;;6.97;87.32
61786;BME280;47692;53.714;11.372;2023-05-20T02:25:42;102200.59;;;7.00;87.44
61786;BME280;47692;53.714;11.372;2023-05-20T02:28:08;102199.75;;;7.01;87.03
61786;BME280;47692;53.714;11.372;2023-05-20T02:30:36;102197.19;;;7.04;86.46
61786;BME280;47692;53.714;11.372;2023-05-20T02:33:01;102203.34;;;7.09;86.26
61786;BME280;47692;53.714;11.372;2023-05-20T02:35:27;102192.06;;;7.07;85.92
61786;BME280;47692;53.714;11.372;2023-05-20T02:37:52;102197.16;;;7.01;85.89
61786;BME280;47692;53.714;11.372;2023-05-20T02:40:17;102193.56;;;6.93;86.20
61786;BME280;47692;53.714;11.372;2023-05-20T02:42:43;102193.50;;;6.90;86.82
61786;BME280;47692;53.714;11.372;2023-05-20T02:45:08;102200.41;;;6.86;87.46
61786;BME280;47692;53.714;11.372;2023-05-20T02:47:34;102195.13;;;6.82;88.10
61786;BME280;47692;53.714;11.372;2023-05-20T02:49:59;102191.56;;;6.76;88.74
61786;BME280;47692;53.714;11.372;2023-05-20T02:52:24;102193.25;;;6.74;89.14
61786;BME280;47692;53.714;11.372;2023-05-20T02:54:50;102189.81;;;6.75;89.73
61786;BME280;47692;53.714;11.372;2023-05-20T02:57:16;102189.63;;;6.63;90.62
61786;BME280;47692;53.714;11.372;2023-05-20T02:59:42;102189.50;;;6.57;91.46
61786;BME280;47692;53.714;11.372;2023-05-20T03:02:07;102187.75;;;6.56;92.06
61786;BME280;47692;53.714;11.372;2023-05-20T03:04:33;102198.19;;;6.59;92.49
61786;BME280;47692;53.714;11.372;2023-05-20T03:07:02;102189.50;;;6.57;92.28
61786;BME280;47692;53.714;11.372;2023-05-20T03:09:27;102191.19;;;6.55;92.26
61786;BME280;47692;53.714;11.372;2023-05-20T03:11:53;102200.59;;;6.48;93.08
61786;BME280;47692;53.714;11.372;2023-05-20T03:14:18;102199.72;;;6.47;93.33
61786;BME280;47692;53.714;11.372;2023-05-20T03:16:43;102200.63;;;6.50;93.40
61786;BME280;47692;53.714;11.372;2023-05-20T03:19:09;102206.72;;;6.52;93.86
61786;BME280;47692;53.714;11.372;2023-05-20T03:21:35;102208.53;;;6.57;93.72
61786;BME280;47692;53.714;11.372;2023-05-20T03:24:00;102203.44;;;6.62;93.35
61786;BME280;47692;53.714;11.372;2023-05-20T03:26:25;102207.91;;;6.71;92.90
61786;BME280;47692;53.714;11.372;2023-05-20T03:28:51;102205.50;;;6.82;92.56
61786;BME280;47692;53.714;11.372;2023-05-20T03:31:16;102204.59;;;6.81;92.15
61786;BME280;47692;53.714;11.372;2023-05-20T03:33:41;102202.00;;;6.79;92.20
61786;BME280;47692;53.714;11.372;2023-05-20T03:36:07;102201.19;;;6.84;92.27
61786;BME280;47692;53.714;11.372;2023-05-20T03:38:32;102203.69;;;6.77;92.30
61786;BME280;47692;53.714;11.372;2023-05-20T03:40:57;102205.31;;;6.72;92.92
61786;BME280;47692;53.714;11.372;2023-05-20T03:43:23;102208.75;;;6.71;93.32
61786;BME280;47692;53.714;11.372;2023-05-20T03:45:49;102205.31;;;6.72;93.88
61786;BME280;47692;53.714;11.372;2023-05-20T03:48:14;102205.41;;;6.75;94.34
61786;BME280;47692;53.714;11.372;2023-05-20T03:50:40;102219.25;;;6.77;94.65
61786;BME280;47692;53.714;11.372;2023-05-20T03:53:05;102221.13;;;6.85;94.71
61786;BME280;47692;53.714;11.372;2023-05-20T03:55:30;102220.28;;;6.87;94.71
61786;BME280;47692;53.714;11.372;2023-05-20T03:57:56;102216.88;;;6.90;94.93
61786;BME280;47692;53.714;11.372;2023-05-20T04:00:21;102215.16;;;6.90;95.11
61786;BME280;47692;53.714;11.372;2023-05-20T04:02:47;102214.22;;;6.87;95.68
61786;BME280;47692;53.714;11.372;2023-05-20T04:05:12;102210.78;;;6.88;96.32
61786;BME280;47692;53.714;11.372;2023-05-20T04:07:38;102205.69;;;6.94;96.73
61786;BME280;47692;53.714;11.372;2023-05-20T04:10:04;102211.81;;;6.98;96.65
61786;BME280;47692;53.714;11.372;2023-05-20T04:12:29;102205.75;;;6.97;97.03
61786;BME280;47692;53.714;11.372;2023-05-20T04:14:59;102207.50;;;6.98;97.74
61786;BME280;47692;53.714;11.372;2023-05-20T04:17:29;102221.38;;;7.00;98.42
61786;BME280;47692;53.714;11.372;2023-05-20T04:19:55;102211.09;;;7.06;98.84
61786;BME280;47692;53.714;11.372;2023-05-20T04:22:21;102211.22;;;7.16;99.27
61786;BME280;47692;53.714;11.372;2023-05-20T04:24:47;102207.91;;;7.26;99.10
61786;BME280;47692;53.714;11.372;2023-05-20T04:27:12;102212.31;;;7.30;99.53
61786;BME280;47692;53.714;11.372;2023-05-20T04:29:38;102213.25;;;7.34;100.00
61786;BME280;47692;53.714;11.372;2023-05-20T04:32:06;102213.34;;;7.41;100.00
61786;BME280;47692;53.714;11.372;2023-05-20T04:34:31;102209.97;;;7.49;100.00
61786;BME280;47692;53.714;11.372;2023-05-20T04:36:59;102202.28;;;7.58;100.00
61786;BME280;47692;53.714;11.372;2023-05-20T04:39:25;102212.84;;;7.69;100.00
61786;BME280;47692;53.714;11.372;2023-05-20T04:41:51;102199.88;;;7.70;100.00
61786;BME280;47692;53.714;11.372;2023-05-20T04:44:19;102207.78;;;7.80;100.00
61786;BME280;47692;53.714;11.372;2023-05-20T04:46:44;102211.31;;;7.83;100.00
61786;BME280;47692;53.714;11.372;2023-05-20T04:49:10;102219.22;;;7.94;100.00
61786;BME280;47692;53.714;11.372;2023-05-20T04:51:35;102220.97;;;7.97;100.00
61786;BME280;47692;53.714;11.372;2023-05-20T04:54:01;102217.66;;;8.08;100.00
61786;BME280;47692;53.714;11.372;2023-05-20T04:56:26;102218.66;;;8.20;100.00
61786;BME280;47692;53.714;11.372;2023-05-20T04:58:51;102219.75;;;8.40;100.00
61786;BME280;47692;53.714;11.372;2023-05-20T05:01:17;102221.75;;;8.63;100.00
61786;BME280;47692;53.714;11.372;2023-05-20T05:03:42;102232.28;;;8.79;100.00
61786;BME280;47692;53.714;11.372;2023-05-20T05:06:08;102239.28;;;8.86;100.00
61786;BME280;47692;53.714;11.372;2023-05-20T05:08:33;102234.13;;;8.89;100.00
61786;BME280;47692;53.714;11.372;2023-05-20T05:10:58;102232.53;;;9.07;100.00
61786;BME280;47692;53.714;11.372;2023-05-20T05:13:24;102236.03;;;9.12;100.00
61786;BME280;47692;53.714;11.372;2023-05-20T05:16:00;102231.78;;;9.21;100.00
61786;BME280;47692;53.714;11.372;2023-05-20T05:18:25;102233.53;;;9.26;100.00
61786;BME280;47692;53.714;11.372;2023-05-20T05:21:04;102225.72;;;9.27;99.75
61786;BME280;47692;53.714;11.372;2023-05-20T05:23:29;102227.50;;;9.33;99.44
61786;BME280;47692;53.714;11.372;2023-05-20T05:25:55;102229.22;;;9.32;99.30
61786;BME280;47692;53.714;11.372;2023-05-20T05:28:21;102221.47;;;9.43;99.87
61786;BME280;47692;53.714;11.372;2023-05-20T05:30:46;102224.16;;;9.57;100.00
61786;BME280;47692;53.714;11.372;2023-05-20T05:33:13;102227.72;;;9.73;99.24
61786;BME280;47692;53.714;11.372;2023-05-20T05:35:40;102219.06;;;9.79;99.12
61786;BME280;47692;53.714;11.372;2023-05-20T05:38:05;102219.09;;;9.85;98.76
61786;BME280;47692;53.714;11.372;2023-05-20T05:40:31;102222.56;;;9.84;97.62
61786;BME280;47692;53.714;11.372;2023-05-20T05:42:56;102222.59;;;9.98;97.29
61786;BME280;47692;53.714;11.372;2023-05-20T05:45:21;102210.44;;;10.01;97.21
61786;BME280;47692;53.714;11.372;2023-05-20T05:47:46;102219.16;;;10.03;97.13
61786;BME280;47692;53.714;11.372;2023-05-20T05:50:12;102219.19;;;10.10;96.51
61786;BME280;47692;53.714;11.372;2023-05-20T05:52:37;102227.91;;;10.15;95.97
61786;BME280;47692;53.714;11.372;2023-05-20T05:55:02;102222.69;;;10.30;95.43
61786;BME280;47692;53.714;11.372;2023-05-20T05:57:28;102229.75;;;10.41;94.51
61786;BME280;47692;53.714;11.372;2023-05-20T05:59:53;102229.75;;;10.50;94.06
61786;BME280;47692;53.714;11.372;2023-05-20T06:02:18;102238.50;;;10.64;92.81
61786;BME280;47692;53.714;11.372;2023-05-20T06:04:44;102229.78;;;10.65;92.00
61786;BME280;47692;53.714;11.372;2023-05-20T06:07:09;102233.25;;;10.61;91.37
61786;BME280;47692;53.714;11.372;2023-05-20T06:09:35;102235.88;;;10.64;91.20
61786;BME280;47692;53.714;11.372;2023-05-20T06:12:00;102231.53;;;10.76;90.81
61786;BME280;47692;53.714;11.372;2023-05-20T06:14:26;102231.53;;;10.82;90.16
61786;BME280;47692;53.714;11.372;2023-05-20T06:16:52;102236.75;;;10.85;90.39
61786;BME280;47692;53.714;11.372;2023-05-20T06:19:17;102231.53;;;11.05;91.47
61786;BME280;47692;53.714;11.372;2023-05-20T06:21:42;102234.16;;;11.07;90.87
61786;BME280;47692;53.714;11.372;2023-05-20T06:24:07;102238.50;;;11.20;89.69
61786;BME280;47692;53.714;11.372;2023-05-20T06:26:33;102228.88;;;11.31;88.17
61786;BME280;47692;53.714;11.372;2023-05-20T06:28:58;102226.25;;;11.38;87.50
61786;BME280;47692;53.714;11.372;2023-05-20T06:31:23;102227.09;;;11.54;87.23
61786;BME280;47692;53.714;11.372;2023-05-20T06:33:49;102227.06;;;11.63;86.88
61786;BME280;47692;53.714;11.372;2023-05-20T06:36:16;102232.28;;;11.66;86.29
61786;BME280;47692;53.714;11.372;2023-05-20T06:38:41;102239.22;;;11.79;86.10
61786;BME280;47692;53.714;11.372;2023-05-20T06:41:07;102233.97;;;11.83;85.38
61786;BME280;47692;53.714;11.372;2023-05-20T06:43:32;102229.66;;;11.74;85.02
61786;BME280;47692;53.714;11.372;2023-05-20T06:45:58;102217.41;;;11.79;85.61
61786;BME280;47692;53.714;11.372;2023-05-20T06:48:23;102220.03;;;11.84;84.49
61786;BME280;47692;53.714;11.372;2023-05-20T06:50:48;102212.97;;;11.93;84.06
61786;BME280;47692;53.714;11.372;2023-05-20T06:53:14;102219.09;;;12.02;83.75
61786;BME280;47692;53.714;11.372;2023-05-20T06:55:39;102219.06;;;12.08;83.82
61786;BME280;47692;53.714;11.372;2023-05-20T06:58:05;102212.00;;;12.19;83.02
61786;BME280;47692;53.714;11.372;2023-05-20T07:00:30;102212.00;;;12.22;83.72
61786;BME280;47692;53.714;11.372;2023-05-20T07:02:55;102206.78;;;12.19;83.35
61786;BME280;47692;53.714;11.372;2023-05-20T07:05:21;102206.75;;;12.25;83.97
61786;BME280;47692;53.714;11.372;2023-05-20T07:07:46;102196.31;;;12.22;84.14
61786;BME280;47692;53.714;11.372;2023-05-20T07:10:11;102197.97;;;12.36;84.44
61786;BME280;47692;53.714;11.372;2023-05-20T07:12:37;102196.09;;;12.53;83.57
61786;BME280;47692;53.714;11.372;2023-05-20T07:15:02;102193.31;;;12.70;82.97
61786;BME280;47692;53.714;11.372;2023-05-20T07:17:28;102196.75;;;12.79;81.51
61786;BME280;47692;53.714;11.372;2023-05-20T07:19:54;102201.06;;;12.87;82.02
61786;BME280;47692;53.714;11.372;2023-05-20T07:22:20;102186.06;;;13.00;81.34
61786;BME280;47692;53.714;11.372;2023-05-20T07:24:45;102186.00;;;13.09;81.16
61786;BME280;47692;53.714;11.372;2023-05-20T07:27:11;102183.28;;;13.17;81.16
61786;BME280;47692;53.714;11.372;2023-05-20T07:29:37;102190.16;;;13.31;80.94
61786;BME280;47692;53.714;11.372;2023-05-20T07:32:03;102183.16;;;13.30;80.82
61786;BME280;47692;53.714;11.372;2023-05-20T07:34:29;102186.66;;;13.29;80.75
61786;BME280;47692;53.714;11.372;2023-05-20T07:36:54;102186.56;;;13.41;79.50
61786;BME280;47692;53.714;11.372;2023-05-20T07:39:21;102188.31;;;13.42;78.39
61786;BME280;47692;53.714;11.372;2023-05-20T07:41:46;102187.38;;;13.46;79.55
61786;BME280;47692;53.714;11.372;2023-05-20T07:44:12;102188.13;;;13.57;79.39
61786;BME280;47692;53.714;11.372;2023-05-20T07:46:37;102191.59;;;13.60;80.73
61786;BME280;47692;53.714;11.372;2023-05-20T07:49:03;102199.44;;;13.64;78.74
61786;BME280;47692;53.714;11.372;2023-05-20T07:51:29;102193.38;;;13.57;78.00
61786;BME280;47692;53.714;11.372;2023-05-20T07:53:55;102190.63;;;13.68;77.87
61786;BME280;47692;53.714;11.372;2023-05-20T07:56:20;102180.94;;;13.75;78.09
61786;BME280;47692;53.714;11.372;2023-05-20T07:58:56;102184.44;;;13.74;78.62
61786;BME280;47692;53.714;11.372;2023-05-20T08:01:25;102186.84;;;13.89;76.85
61786;BME280;47692;53.714;11.372;2023-05-20T08:03:51;102179.53;;;14.13;77.79
61786;BME280;47692;53.714;11.372;2023-05-20T08:06:17;102184.81;;;14.12;75.45
61786;BME280;47692;53.714;11.372;2023-05-20T08:08:45;102168.47;;;13.93;75.86
61786;BME280;47692;53.714;11.372;2023-05-20T08:11:10;102175.56;;;13.84;78.30
61786;BME280;47692;53.714;11.372;2023-05-20T08:13:36;102173.06;;;13.73;77.94
61786;BME280;47692;53.714;11.372;2023-05-20T08:16:01;102170.38;;;13.78;78.36
61786;BME280;47692;53.714;11.372;2023-05-20T08:18:30;102164.19;;;13.82;77.43
61786;BME280;47692;53.714;11.372;2023-05-20T08:20:57;102166.47;;;14.10;76.54
61786;BME280;47692;53.714;11.372;2023-05-20T08:23:23;102161.03;;;14.22;75.36
61786;BME280;47692;53.714;11.372;2023-05-20T08:25:48;102165.38;;;14.22;74.51
61786;BME280;47692;53.714;11.372;2023-05-20T08:28:14;102161.75;;;14.31;74.98
61786;BME280;47692;53.714;11.372;2023-05-20T08:30:39;102163.34;;;14.43;74.75
61786;BME280;47692;53.714;11.372;2023-05-20T08:33:05;102157.97;;;14.49;74.11
61786;BME280;47692;53.714;11.372;2023-05-20T08:35:30;102156.97;;;14.58;73.53
61786;BME280;47692;53.714;11.372;2023-05-20T08:37:56;102162.38;;;14.48;74.51
61786;BME280;47692;53.714;11.372;2023-05-20T08:40:21;102163.97;;;14.59;74.76
61786;BME280;47692;53.714;11.372;2023-05-20T08:42:48;102158.53;;;14.71;73.38
61786;BME280;47692;53.714;11.372;2023-05-20T08:45:16;102159.09;;;14.89;72.91
61786;BME280;47692;53.714;11.372;2023-05-20T08:47:42;102152.72;;;15.02;72.25
61786;BME280;47692;53.714;11.372;2023-05-20T08:50:09;102157.09;;;15.03;70.21
61786;BME280;47692;53.714;11.372;2023-05-20T08:52:37;102152.50;;;15.13;70.74
61786;BME280;47692;53.714;11.372;2023-05-20T08:55:06;102161.09;;;15.23;70.63
61786;BME280;47692;53.714;11.372;2023-05-20T08:57:34;102151.38;;;15.26;70.38
61786;BME280;47692;53.714;11.372;2023-05-20T09:00:01;102152.19;;;15.30;68.88
61786;BME280;47692;53.714;11.372;2023-05-20T09:02:35;102150.28;;;15.38;69.11
61786;BME280;47692;53.714;11.372;2023-05-20T09:05:01;102151.13;;;15.39;67.66
61786;BME280;47692;53.714;11.372;2023-05-20T09:07:28;102142.31;;;15.41;68.13
61786;BME280;47692;53.714;11.372;2023-05-20T09:09:54;102144.91;;;15.43;67.91
61786;BME280;47692;53.714;11.372;2023-05-20T09:12:20;102143.31;;;15.35;68.40
61786;BME280;47692;53.714;11.372;2023-05-20T09:14:45;102143.41;;;15.31;68.74
61786;BME280;47692;53.714;11.372;2023-05-20T09:17:12;102141.63;;;15.33;67.63
61786;BME280;47692;53.714;11.372;2023-05-20T09:19:37;102137.25;;;15.32;69.02
61786;BME280;47692;53.714;11.372;2023-05-20T09:22:03;102133.97;;;15.21;67.86
61786;BME280;47692;53.714;11.372;2023-05-20T09:24:29;102135.50;;;15.31;67.59
61786;BME280;47692;53.714;11.372;2023-05-20T09:26:54;102137.97;;;15.39;67.28
61786;BME280;47692;53.714;11.372;2023-05-20T09:29:20;102131.78;;;15.41;67.20
61786;BME280;47692;53.714;11.372;2023-05-20T09:31:46;102129.91;;;15.48;67.80
61786;BME280;47692;53.714;11.372;2023-05-20T09:34:11;102137.91;;;15.43;68.38
61786;BME280;47692;53.714;11.372;2023-05-20T09:36:38;102135.97;;;15.51;67.77
61786;BME280;47692;53.714;11.372;2023-05-20T09:39:06;102131.47;;;15.57;67.17
61786;BME280;47692;53.714;11.372;2023-05-20T09:41:48;102129.66;;;15.60;65.64
61786;BME280;47692;53.714;11.372;2023-05-20T09:44:16;102134.03;;;15.60;65.05
61786;BME280;47692;53.714;11.372;2023-05-20T09:46:44;102126.84;;;15.68;65.29
61786;BME280;47692;53.714;11.372;2023-05-20T09:49:12;102138.97;;;15.75;65.39
61786;BME280;47692;53.714;11.372;2023-05-20T09:51:39;102127.56;;;15.75;64.52
61786;BME280;47692;53.714;11.372;2023-05-20T09:54:06;102133.00;;;15.67;64.15
61786;BME280;47692;53.714;11.372;2023-05-20T09:56:33;102125.03;;;15.70;64.65
61786;BME280;47692;53.714;11.372;2023-05-20T09:58:59;102125.69;;;15.80;64.09
61786;BME280;47692;53.714;11.372;2023-05-20T10:01:26;102128.31;;;15.81;63.57
61786;BME280;47692;53.714;11.372;2023-05-20T10:03:52;102130.16;;;15.76;64.77
61786;BME280;47692;53.714;11.372;2023-05-20T10:06:34;102122.34;;;15.73;65.44
61786;BME280;47692;53.714;11.372;2023-05-20T10:17:50;102114.34;;;15.76;63.95
61786;BME280;47692;53.714;11.372;2023-05-20T10:20:17;102115.16;;;15.81;64.56
61786;BME280;47692;53.714;11.372;2023-05-20T10:22:43;102109.03;;;15.79;63.82
61786;BME280;47692;53.714;11.372;2023-05-20T10:25:28;102106.38;;;15.81;63.58
61786;BME280;47692;53.714;11.372;2023-05-20T10:28:06;102110.66;;;15.87;64.92
61786;BME280;47692;53.714;11.372;2023-05-20T10:30:32;102104.72;;;15.77;63.78
61786;BME280;47692;53.714;11.372;2023-05-20T10:33:02;102102.88;;;15.80;65.16
61786;BME280;47692;53.714;11.372;2023-05-20T10:35:29;102092.69;;;15.65;64.82
61786;BME280;47692;53.714;11.372;2023-05-20T10:38:14;102099.63;;;15.67;65.76
61786;BME280;47692;53.714;11.372;2023-05-20T10:40:39;102099.50;;;15.75;66.63
61786;BME280;47692;53.714;11.372;2023-05-20T10:43:10;102096.09;;;15.68;65.64
61786;BME280;47692;53.714;11.372;2023-05-20T10:45:46;102096.28;;;15.61;66.39
61786;BME280;47692;53.714;11.372;2023-05-20T10:48:19;102102.56;;;15.54;65.84
61786;BME280;47692;53.714;11.372;2023-05-20T10:50:45;102102.56;;;15.54;65.60
61786;BME280;47692;53.714;11.372;2023-05-20T10:53:12;102091.91;;;15.60;65.95
61786;BME280;47692;53.714;11.372;2023-05-20T10:55:38;102088.31;;;15.64;66.11
61786;BME280;47692;53.714;11.372;2023-05-20T10:58:05;102085.84;;;15.58;65.52
61786;BME280;47692;53.714;11.372;2023-05-20T11:00:33;102086.59;;;15.63;65.73
61786;BME280;47692;53.714;11.372;2023-05-20T11:02:59;102082.09;;;15.68;66.33
61786;BME280;47692;53.714;11.372;2023-05-20T11:05:25;102081.16;;;15.71;66.62
61786;BME280;47692;53.714;11.372;2023-05-20T11:08:02;102074.38;;;15.59;66.83
61786;BME280;47692;53.714;11.372;2023-05-20T11:10:28;102076.19;;;15.57;66.96
61786;BME280;47692;53.714;11.372;2023-05-20T11:12:55;102066.78;;;15.45;66.96
61786;BME280;47692;53.714;11.372;2023-05-20T11:15:21;102070.50;;;15.36;67.82
61786;BME280;47692;53.714;11.372;2023-05-20T11:17:59;102073.06;;;15.39;68.20
61786;BME280;47692;53.714;11.372;2023-05-20T11:20:25;102074.88;;;15.37;68.94
61786;BME280;47692;53.714;11.372;2023-05-20T11:22:52;102070.59;;;15.31;68.85
61786;BME280;47692;53.714;11.372;2023-05-20T11:25:18;102068.00;;;15.30;68.83
61786;BME280;47692;53.714;11.372;2023-05-20T11:27:44;102072.50;;;15.25;69.23
61786;BME280;47692;53.714;11.372;2023-05-20T11:30:11;102068.16;;;15.22;69.62
61786;BME280;47692;53.714;11.372;2023-05-20T11:32:37;102061.13;;;15.23;69.93
61786;BME280;47692;53.714;11.372;2023-05-20T11:35:02;102069.91;;;15.22;69.61
61786;BME280;47692;53.714;11.372;2023-05-20T11:37:29;102067.41;;;15.15;70.05
61786;BME280;47692;53.714;11.372;2023-05-20T11:40:06;102064.84;;;15.12;70.82
61786;BME280;47692;53.714;11.372;2023-05-20T11:42:33;102057.97;;;15.05;70.59
61786;BME280;47692;53.714;11.372;2023-05-20T11:44:59;102070.09;;;15.12;71.46
61786;BME280;47692;53.714;11.372;2023-05-20T11:47:25;102068.25;;;15.17;71.39
61786;BME280;47692;53.714;11.372;2023-05-20T11:49:55;102064.78;;;15.15;71.65
61786;BME280;47692;53.714;11.372;2023-05-20T11:52:20;102063.84;;;15.19;71.34
61786;BME280;47692;53.714;11.372;2023-05-20T11:54:55;102068.00;;;15.30;70.45
61786;BME280;47692;53.714;11.372;2023-05-20T11:57:20;102063.50;;;15.35;69.93
61786;BME280;47692;53.714;11.372;2023-05-20T11:59:48;102060.88;;;15.35;69.70
61786;BME280;47692;53.714;11.372;2023-05-20T12:02:13;102065.81;;;15.50;69.96
61786;BME280;47692;53.714;11.372;2023-05-20T12:04:38;102057.78;;;15.57;70.51
61786;BME280;47692;53.714;11.372;2023-05-20T12:07:04;102053.94;;;15.70;70.90
61786;BME280;47692;53.714;11.372;2023-05-20T12:09:33;102060.78;;;15.79;70.39
61786;BME280;47692;53.714;11.372;2023-05-20T12:11:58;102045.19;;;15.70;70.20
61786;BME280;47692;53.714;11.372;2023-05-20T12:14:24;102043.34;;;15.73;70.04
61786;BME280;47692;53.714;11.372;2023-05-20T12:16:49;102045.38;;;15.62;69.90
61786;BME280;47692;53.714;11.372;2023-05-20T12:19:14;102038.28;;;15.65;69.90
61786;BME280;47692;53.714;11.372;2023-05-20T12:21:40;102040.97;;;15.62;70.39
61786;BME280;47692;53.714;11.372;2023-05-20T12:24:05;102039.34;;;15.57;71.01
61786;BME280;47692;53.714;11.372;2023-05-20T12:26:32;102038.69;;;15.47;71.58
61786;BME280;47692;53.714;11.372;2023-05-20T12:28:59;102027.09;;;15.56;71.76
61786;BME280;47692;53.714;11.372;2023-05-20T12:31:24;102030.72;;;15.50;71.47
61786;BME280;47692;53.714;11.372;2023-05-20T12:33:50;102023.88;;;15.41;72.26
61786;BME280;47692;53.714;11.372;2023-05-20T12:36:15;102019.56;;;15.39;73.11
61786;BME280;47692;53.714;11.372;2023-05-20T12:38:40;102017.09;;;15.31;73.31
61786;BME280;47692;53.714;11.372;2023-05-20T12:41:06;102014.47;;;15.31;73.49
61786;BME280;47692;53.714;11.372;2023-05-20T12:43:34;102013.50;;;15.35;73.19
61786;BME280;47692;53.714;11.372;2023-05-20T12:46:00;102023.09;;;15.39;74.08
61786;BME280;47692;53.714;11.372;2023-05-20T12:48:25;102004.28;;;15.55;73.89